sensor_id;sensor_type;location;lat;lon;timestamp;P1;durP1;ratioP1;P2;durP2;ratioP2
27566;SDS011;15006;48.584;9.186;2024-02-14T00:00:10;9.50;;;7.97;;
27566;SDS011;15006;48.584;9.186;2024-02-14T00:02:45;10.30;;;7.38;;
27566;SDS011;15006;48.584;9.186;2024-02-14T00:05:15;12.13;;;7.25;;
27566;SDS011;15006;48.584;9.186;2024-02-14T00:07:41;10.07;;;7.18;;
27566;SDS011;15006;48.584;9.186;2024-02-14T00:10:08;10.27;;;6.65;;
27566;SDS011;15006;48.584;9.186;2024-02-14T00:12:41;8.07;;;6.68;;
27566;SDS011;15006;48.584;9.186;2024-02-14T00:15:07;9.38;;;6.25;;
27566;SDS011;15006;48.584;9.186;2024-02-14T00:17:33;11.55;;;6.72;;
27566;SDS011;15006;48.584;9.186;2024-02-14T00:20:00;11.48;;;6.53;;
27566;SDS011;15006;48.584;9.186;2024-02-14T00:22:31;11.80;;;7.38;;
27566;SDS011;15006;48.584;9.186;2024-02-14T00:24:57;7.13;;;6.40;;
27566;SDS011;15006;48.584;9.186;2024-02-14T00:27:23;8.75;;;6.68;;
27566;SDS011;15006;48.584;9.186;2024-02-14T00:29:51;8.90;;;7.03;;
27566;SDS011;15006;48.584;9.186;2024-02-14T00:32:19;13.13;;;7.97;;
27566;SDS011;15006;48.584;9.186;2024-02-14T00:34:51;12.20;;;7.10;;
27566;SDS011;15006;48.584;9.186;2024-02-14T00:37:18;8.48;;;6.45;;
27566;SDS011;15006;48.584;9.186;2024-02-14T00:39:45;7.65;;;6.50;;
27566;SDS011;15006;48.584;9.186;2024-02-14T00:42:13;8.98;;;6.70;;
27566;SDS011;15006;48.584;9.186;2024-02-14T00:44:39;8.68;;;7.50;;
27566;SDS011;15006;48.584;9.186;2024-02-14T00:47:05;12.80;;;7.20;;
27566;SDS011;15006;48.584;9.186;2024-02-14T00:49:34;12.32;;;7.20;;
27566;SDS011;15006;48.584;9.186;2024-02-14T00:52:00;10.77;;;7.05;;
27566;SDS011;15006;48.584;9.186;2024-02-14T00:54:26;9.68;;;7.05;;
27566;SDS011;15006;48.584;9.186;2024-02-14T00:56:52;9.68;;;7.38;;
27566;SDS011;15006;48.584;9.186;2024-02-14T00:59:18;9.73;;;7.10;;
27566;SDS011;15006;48.584;9.186;2024-02-14T01:01:44;8.88;;;7.47;;
27566;SDS011;15006;48.584;9.186;2024-02-14T01:04:10;9.90;;;7.57;;
27566;SDS011;15006;48.584;9.186;2024-02-14T01:06:36;7.85;;;7.10;;
27566;SDS011;15006;48.584;9.186;2024-02-14T01:09:02;10.93;;;6.70;;
27566;SDS011;15006;48.584;9.186;2024-02-14T01:11:28;10.70;;;7.50;;
27566;SDS011;15006;48.584;9.186;2024-02-14T01:13:54;8.77;;;7.78;;
27566;SDS011;15006;48.584;9.186;2024-02-14T01:16:20;13.13;;;7.68;;
27566;SDS011;15006;48.584;9.186;2024-02-14T01:18:47;11.45;;;7.78;;
27566;SDS011;15006;48.584;9.186;2024-02-14T01:21:12;10.90;;;8.13;;
27566;SDS011;15006;48.584;9.186;2024-02-14T01:23:38;8.85;;;7.55;;
27566;SDS011;15006;48.584;9.186;2024-02-14T01:26:04;10.88;;;7.30;;
27566;SDS011;15006;48.584;9.186;2024-02-14T01:28:30;13.23;;;8.20;;
27566;SDS011;15006;48.584;9.186;2024-02-14T01:30:57;10.85;;;7.78;;
27566;SDS011;15006;48.584;9.186;2024-02-14T01:33:23;9.05;;;7.65;;
27566;SDS011;15006;48.584;9.186;2024-02-14T01:35:49;10.90;;;8.13;;
27566;SDS011;15006;48.584;9.186;2024-02-14T01:38:15;15.45;;;8.55;;
27566;SDS011;15006;48.584;9.186;2024-02-14T01:40:44;11.07;;;8.00;;
27566;SDS011;15006;48.584;9.186;2024-02-14T01:43:10;9.98;;;8.05;;
27566;SDS011;15006;48.584;9.186;2024-02-14T01:45:37;10.00;;;8.27;;
27566;SDS011;15006;48.584;9.186;2024-02-14T01:48:11;9.45;;;7.93;;
27566;SDS011;15006;48.584;9.186;2024-02-14T01:50:38;10.32;;;7.55;;
27566;SDS011;15006;48.584;9.186;2024-02-14T01:53:05;9.02;;;8.07;;
27566;SDS011;15006;48.584;9.186;2024-02-14T01:55:32;13.20;;;9.18;;
27566;SDS011;15006;48.584;9.186;2024-02-14T01:57:59;13.48;;;9.23;;
27566;SDS011;15006;48.584;9.186;2024-02-14T02:00:28;9.10;;;8.07;;
27566;SDS011;15006;48.584;9.186;2024-02-14T02:02:57;17.15;;;8.27;;
27566;SDS011;15006;48.584;9.186;2024-02-14T02:05:23;11.20;;;8.77;;
27566;SDS011;15006;48.584;9.186;2024-02-14T02:07:49;13.00;;;8.63;;
27566;SDS011;15006;48.584;9.186;2024-02-14T02:10:15;11.20;;;8.60;;
27566;SDS011;15006;48.584;9.186;2024-02-14T02:13:01;10.18;;;8.52;;
27566;SDS011;15006;48.584;9.186;2024-02-14T02:15:47;15.00;;;8.75;;
27566;SDS011;15006;48.584;9.186;2024-02-14T02:18:33;11.25;;;8.00;;
27566;SDS011;15006;48.584;9.186;2024-02-14T02:21:19;11.95;;;8.68;;
27566;SDS011;15006;48.584;9.186;2024-02-14T02:23:48;11.00;;;8.43;;
27566;SDS011;15006;48.584;9.186;2024-02-14T02:26:14;9.35;;;8.40;;
27566;SDS011;15006;48.584;9.186;2024-02-14T02:29:00;9.65;;;7.68;;
27566;SDS011;15006;48.584;9.186;2024-02-14T02:31:27;8.30;;;7.32;;
27566;SDS011;15006;48.584;9.186;2024-02-14T02:33:53;7.82;;;6.63;;
27566;SDS011;15006;48.584;9.186;2024-02-14T02:36:19;8.43;;;7.05;;
27566;SDS011;15006;48.584;9.186;2024-02-14T02:39:05;8.05;;;7.22;;
27566;SDS011;15006;48.584;9.186;2024-02-14T02:41:51;9.88;;;7.70;;
27566;SDS011;15006;48.584;9.186;2024-02-14T02:44:55;15.45;;;8.63;;
27566;SDS011;15006;48.584;9.186;2024-02-14T02:47:47;15.43;;;9.88;;
27566;SDS011;15006;48.584;9.186;2024-02-14T02:50:36;15.38;;;9.90;;
27566;SDS011;15006;48.584;9.186;2024-02-14T02:53:22;12.65;;;9.07;;
27566;SDS011;15006;48.584;9.186;2024-02-14T02:56:09;16.42;;;9.57;;
27566;SDS011;15006;48.584;9.186;2024-02-14T02:58:35;11.45;;;9.35;;
27566;SDS011;15006;48.584;9.186;2024-02-14T03:01:02;12.02;;;8.05;;
27566;SDS011;15006;48.584;9.186;2024-02-14T03:03:50;9.52;;;7.28;;
27566;SDS011;15006;48.584;9.186;2024-02-14T03:06:36;11.60;;;7.53;;
27566;SDS011;15006;48.584;9.186;2024-02-14T03:09:19;8.00;;;6.97;;
27566;SDS011;15006;48.584;9.186;2024-02-14T03:12:05;7.75;;;7.00;;
27566;SDS011;15006;48.584;9.186;2024-02-14T03:14:51;10.15;;;7.88;;
27566;SDS011;15006;48.584;9.186;2024-02-14T03:17:32;7.78;;;6.97;;
27566;SDS011;15006;48.584;9.186;2024-02-14T03:19:58;7.93;;;7.13;;
27566;SDS011;15006;48.584;9.186;2024-02-14T03:22:23;8.98;;;7.38;;
27566;SDS011;15006;48.584;9.186;2024-02-14T03:24:49;12.80;;;7.45;;
27566;SDS011;15006;48.584;9.186;2024-02-14T03:27:16;10.82;;;7.22;;
27566;SDS011;15006;48.584;9.186;2024-02-14T03:29:42;10.75;;;7.45;;
27566;SDS011;15006;48.584;9.186;2024-02-14T03:32:09;10.57;;;7.50;;
27566;SDS011;15006;48.584;9.186;2024-02-14T03:34:35;15.07;;;7.88;;
27566;SDS011;15006;48.584;9.186;2024-02-14T03:37:02;13.82;;;7.68;;
27566;SDS011;15006;48.584;9.186;2024-02-14T03:39:30;9.48;;;8.48;;
27566;SDS011;15006;48.584;9.186;2024-02-14T03:41:56;13.80;;;8.25;;
27566;SDS011;15006;48.584;9.186;2024-02-14T03:44:24;9.40;;;8.00;;
27566;SDS011;15006;48.584;9.186;2024-02-14T03:46:49;10.55;;;8.10;;
27566;SDS011;15006;48.584;9.186;2024-02-14T03:49:15;10.13;;;8.13;;
27566;SDS011;15006;48.584;9.186;2024-02-14T03:51:42;13.30;;;8.35;;
27566;SDS011;15006;48.584;9.186;2024-02-14T03:54:08;9.80;;;8.10;;
27566;SDS011;15006;48.584;9.186;2024-02-14T03:56:34;10.10;;;7.35;;
27566;SDS011;15006;48.584;9.186;2024-02-14T03:59:01;9.95;;;6.88;;
27566;SDS011;15006;48.584;9.186;2024-02-14T04:01:28;11.13;;;6.60;;
27566;SDS011;15006;48.584;9.186;2024-02-14T04:03:54;7.20;;;5.95;;
27566;SDS011;15006;48.584;9.186;2024-02-14T04:06:20;6.82;;;6.13;;
27566;SDS011;15006;48.584;9.186;2024-02-14T04:08:46;8.85;;;5.95;;
27566;SDS011;15006;48.584;9.186;2024-02-14T04:11:12;7.47;;;5.30;;
27566;SDS011;15006;48.584;9.186;2024-02-14T04:13:39;6.82;;;5.75;;
27566;SDS011;15006;48.584;9.186;2024-02-14T04:16:05;6.43;;;5.75;;
27566;SDS011;15006;48.584;9.186;2024-02-14T04:18:39;6.28;;;5.03;;
27566;SDS011;15006;48.584;9.186;2024-02-14T04:21:07;6.65;;;5.75;;
27566;SDS011;15006;48.584;9.186;2024-02-14T04:23:33;8.60;;;5.93;;
27566;SDS011;15006;48.584;9.186;2024-02-14T04:25:59;6.55;;;5.90;;
27566;SDS011;15006;48.584;9.186;2024-02-14T04:28:25;6.28;;;5.65;;
27566;SDS011;15006;48.584;9.186;2024-02-14T04:30:51;7.97;;;5.80;;
27566;SDS011;15006;48.584;9.186;2024-02-14T04:33:24;8.55;;;5.75;;
27566;SDS011;15006;48.584;9.186;2024-02-14T04:35:50;6.57;;;5.88;;
27566;SDS011;15006;48.584;9.186;2024-02-14T04:38:16;7.18;;;6.47;;
27566;SDS011;15006;48.584;9.186;2024-02-14T04:40:44;9.77;;;6.45;;
27566;SDS011;15006;48.584;9.186;2024-02-14T04:43:10;10.90;;;5.88;;
27566;SDS011;15006;48.584;9.186;2024-02-14T04:45:37;6.93;;;5.85;;
27566;SDS011;15006;48.584;9.186;2024-02-14T04:48:06;5.93;;;5.40;;
27566;SDS011;15006;48.584;9.186;2024-02-14T04:50:33;6.38;;;5.38;;
27566;SDS011;15006;48.584;9.186;2024-02-14T04:52:59;6.03;;;5.13;;
27566;SDS011;15006;48.584;9.186;2024-02-14T04:55:25;8.18;;;6.00;;
27566;SDS011;15006;48.584;9.186;2024-02-14T04:57:51;6.40;;;5.82;;
27566;SDS011;15006;48.584;9.186;2024-02-14T05:00:17;8.18;;;6.55;;
27566;SDS011;15006;48.584;9.186;2024-02-14T05:02:44;9.05;;;6.88;;
27566;SDS011;15006;48.584;9.186;2024-02-14T05:05:10;7.28;;;6.57;;
27566;SDS011;15006;48.584;9.186;2024-02-14T05:07:42;9.48;;;6.93;;
27566;SDS011;15006;48.584;9.186;2024-02-14T05:10:08;9.52;;;7.50;;
27566;SDS011;15006;48.584;9.186;2024-02-14T05:12:34;9.02;;;7.75;;
27566;SDS011;15006;48.584;9.186;2024-02-14T05:15:00;10.82;;;8.45;;
27566;SDS011;15006;48.584;9.186;2024-02-14T05:17:26;12.68;;;8.95;;
27566;SDS011;15006;48.584;9.186;2024-02-14T05:19:52;13.07;;;8.95;;
27566;SDS011;15006;48.584;9.186;2024-02-14T05:22:18;13.40;;;9.27;;
27566;SDS011;15006;48.584;9.186;2024-02-14T05:24:44;11.13;;;9.90;;
27566;SDS011;15006;48.584;9.186;2024-02-14T05:27:11;15.60;;;9.50;;
27566;SDS011;15006;48.584;9.186;2024-02-14T05:29:37;11.30;;;8.57;;
27566;SDS011;15006;48.584;9.186;2024-02-14T05:32:04;11.00;;;7.88;;
27566;SDS011;15006;48.584;9.186;2024-02-14T05:34:31;8.63;;;6.85;;
27566;SDS011;15006;48.584;9.186;2024-02-14T05:36:56;8.38;;;6.75;;
27566;SDS011;15006;48.584;9.186;2024-02-14T05:39:22;8.95;;;6.70;;
27566;SDS011;15006;48.584;9.186;2024-02-14T05:41:48;14.82;;;7.07;;
27566;SDS011;15006;48.584;9.186;2024-02-14T05:44:14;9.98;;;6.05;;
27566;SDS011;15006;48.584;9.186;2024-02-14T05:46:40;8.43;;;6.55;;
27566;SDS011;15006;48.584;9.186;2024-02-14T05:49:06;7.60;;;6.90;;
27566;SDS011;15006;48.584;9.186;2024-02-14T05:51:33;7.82;;;6.70;;
27566;SDS011;15006;48.584;9.186;2024-02-14T05:53:59;10.93;;;5.82;;
27566;SDS011;15006;48.584;9.186;2024-02-14T05:56:25;9.30;;;6.30;;
27566;SDS011;15006;48.584;9.186;2024-02-14T05:58:51;7.68;;;5.47;;
27566;SDS011;15006;48.584;9.186;2024-02-14T06:01:17;6.68;;;6.07;;
27566;SDS011;15006;48.584;9.186;2024-02-14T06:03:43;7.13;;;6.13;;
27566;SDS011;15006;48.584;9.186;2024-02-14T06:06:09;7.38;;;6.35;;
27566;SDS011;15006;48.584;9.186;2024-02-14T06:08:36;6.40;;;5.65;;
27566;SDS011;15006;48.584;9.186;2024-02-14T06:11:02;6.18;;;5.55;;
27566;SDS011;15006;48.584;9.186;2024-02-14T06:13:28;7.78;;;6.78;;
27566;SDS011;15006;48.584;9.186;2024-02-14T06:15:54;11.10;;;7.80;;
27566;SDS011;15006;48.584;9.186;2024-02-14T06:18:20;11.05;;;8.07;;
27566;SDS011;15006;48.584;9.186;2024-02-14T06:20:46;8.40;;;6.50;;
27566;SDS011;15006;48.584;9.186;2024-02-14T06:23:12;8.30;;;6.40;;
27566;SDS011;15006;48.584;9.186;2024-02-14T06:25:38;10.90;;;6.57;;
27566;SDS011;15006;48.584;9.186;2024-02-14T06:28:07;11.13;;;6.65;;
27566;SDS011;15006;48.584;9.186;2024-02-14T06:30:35;7.20;;;6.40;;
27566;SDS011;15006;48.584;9.186;2024-02-14T06:33:01;7.45;;;6.78;;
27566;SDS011;15006;48.584;9.186;2024-02-14T06:35:28;10.77;;;6.72;;
27566;SDS011;15006;48.584;9.186;2024-02-14T06:37:54;9.48;;;6.82;;
27566;SDS011;15006;48.584;9.186;2024-02-14T06:40:21;12.07;;;6.97;;
27566;SDS011;15006;48.584;9.186;2024-02-14T06:42:47;9.70;;;7.43;;
27566;SDS011;15006;48.584;9.186;2024-02-14T06:45:16;8.88;;;7.22;;
27566;SDS011;15006;48.584;9.186;2024-02-14T06:47:55;10.65;;;7.50;;
27566;SDS011;15006;48.584;9.186;2024-02-14T06:50:21;9.35;;;7.63;;
27566;SDS011;15006;48.584;9.186;2024-02-14T06:52:47;9.00;;;7.90;;
27566;SDS011;15006;48.584;9.186;2024-02-14T06:55:13;8.57;;;7.75;;
27566;SDS011;15006;48.584;9.186;2024-02-14T06:57:38;13.02;;;9.50;;
27566;SDS011;15006;48.584;9.186;2024-02-14T07:00:05;10.50;;;9.02;;
27566;SDS011;15006;48.584;9.186;2024-02-14T07:02:35;16.45;;;8.63;;
27566;SDS011;15006;48.584;9.186;2024-02-14T07:05:01;9.68;;;7.28;;
27566;SDS011;15006;48.584;9.186;2024-02-14T07:07:29;7.97;;;7.15;;
27566;SDS011;15006;48.584;9.186;2024-02-14T07:09:55;9.63;;;6.57;;
27566;SDS011;15006;48.584;9.186;2024-02-14T07:12:21;8.90;;;6.25;;
27566;SDS011;15006;48.584;9.186;2024-02-14T07:14:47;5.47;;;4.90;;
27566;SDS011;15006;48.584;9.186;2024-02-14T07:17:13;4.30;;;3.97;;
27566;SDS011;15006;48.584;9.186;2024-02-14T07:19:39;4.88;;;4.38;;
27566;SDS011;15006;48.584;9.186;2024-02-14T07:22:07;6.45;;;5.32;;
27566;SDS011;15006;48.584;9.186;2024-02-14T07:24:34;6.38;;;5.70;;
27566;SDS011;15006;48.584;9.186;2024-02-14T07:27:00;8.98;;;7.25;;
27566;SDS011;15006;48.584;9.186;2024-02-14T07:29:27;8.00;;;7.20;;
27566;SDS011;15006;48.584;9.186;2024-02-14T07:31:52;7.10;;;5.82;;
27566;SDS011;15006;48.584;9.186;2024-02-14T07:34:19;8.20;;;5.00;;
27566;SDS011;15006;48.584;9.186;2024-02-14T07:36:46;4.40;;;4.05;;
27566;SDS011;15006;48.584;9.186;2024-02-14T07:39:12;5.30;;;4.70;;
27566;SDS011;15006;48.584;9.186;2024-02-14T07:41:38;7.20;;;4.55;;
27566;SDS011;15006;48.584;9.186;2024-02-14T07:44:04;6.68;;;4.18;;
27566;SDS011;15006;48.584;9.186;2024-02-14T07:46:30;5.70;;;5.07;;
27566;SDS011;15006;48.584;9.186;2024-02-14T07:48:56;5.05;;;4.22;;
27566;SDS011;15006;48.584;9.186;2024-02-14T07:51:22;4.90;;;4.55;;
27566;SDS011;15006;48.584;9.186;2024-02-14T07:53:49;4.70;;;4.30;;
27566;SDS011;15006;48.584;9.186;2024-02-14T07:56:15;4.50;;;4.18;;
27566;SDS011;15006;48.584;9.186;2024-02-14T07:58:43;4.30;;;3.92;;
27566;SDS011;15006;48.584;9.186;2024-02-14T08:01:09;7.00;;;4.78;;
27566;SDS011;15006;48.584;9.186;2024-02-14T08:03:35;4.18;;;3.80;;
27566;SDS011;15006;48.584;9.186;2024-02-14T08:06:01;5.55;;;4.20;;
27566;SDS011;15006;48.584;9.186;2024-02-14T08:08:27;7.07;;;4.28;;
27566;SDS011;15006;48.584;9.186;2024-02-14T08:10:53;6.85;;;4.80;;
27566;SDS011;15006;48.584;9.186;2024-02-14T08:13:20;5.07;;;4.68;;
27566;SDS011;15006;48.584;9.186;2024-02-14T08:15:46;6.00;;;5.00;;
27566;SDS011;15006;48.584;9.186;2024-02-14T08:18:12;8.95;;;5.53;;
27566;SDS011;15006;48.584;9.186;2024-02-14T08:20:38;5.82;;;4.38;;
27566;SDS011;15006;48.584;9.186;2024-02-14T08:23:12;5.40;;;4.70;;
27566;SDS011;15006;48.584;9.186;2024-02-14T08:25:38;5.53;;;5.03;;
27566;SDS011;15006;48.584;9.186;2024-02-14T08:28:04;7.72;;;5.35;;
27566;SDS011;15006;48.584;9.186;2024-02-14T08:30:33;5.28;;;4.45;;
27566;SDS011;15006;48.584;9.186;2024-02-14T08:32:59;4.95;;;4.45;;
27566;SDS011;15006;48.584;9.186;2024-02-14T08:35:25;7.05;;;4.30;;
27566;SDS011;15006;48.584;9.186;2024-02-14T08:37:51;4.43;;;4.03;;
27566;SDS011;15006;48.584;9.186;2024-02-14T08:40:17;5.05;;;4.45;;
27566;SDS011;15006;48.584;9.186;2024-02-14T08:42:43;4.90;;;4.30;;
27566;SDS011;15006;48.584;9.186;2024-02-14T08:45:09;5.88;;;4.30;;
27566;SDS011;15006;48.584;9.186;2024-02-14T08:47:36;4.07;;;3.85;;
27566;SDS011;15006;48.584;9.186;2024-02-14T08:50:05;5.13;;;4.50;;
27566;SDS011;15006;48.584;9.186;2024-02-14T08:52:31;5.07;;;3.92;;
27566;SDS011;15006;48.584;9.186;2024-02-14T08:54:57;4.85;;;4.20;;
27566;SDS011;15006;48.584;9.186;2024-02-14T08:57:23;4.47;;;4.07;;
27566;SDS011;15006;48.584;9.186;2024-02-14T08:59:49;5.00;;;3.70;;
27566;SDS011;15006;48.584;9.186;2024-02-14T09:02:16;3.58;;;3.38;;
27566;SDS011;15006;48.584;9.186;2024-02-14T09:04:42;4.82;;;3.80;;
27566;SDS011;15006;48.584;9.186;2024-02-14T09:07:09;8.20;;;3.72;;
27566;SDS011;15006;48.584;9.186;2024-02-14T09:09:36;4.25;;;3.85;;
27566;SDS011;15006;48.584;9.186;2024-02-14T09:12:03;3.95;;;3.55;;
27566;SDS011;15006;48.584;9.186;2024-02-14T09:14:30;4.00;;;3.58;;
27566;SDS011;15006;48.584;9.186;2024-02-14T09:16:56;4.70;;;3.72;;
27566;SDS011;15006;48.584;9.186;2024-02-14T09:19:23;5.30;;;4.20;;
27566;SDS011;15006;48.584;9.186;2024-02-14T09:21:50;6.50;;;4.53;;
27566;SDS011;15006;48.584;9.186;2024-02-14T09:24:17;5.35;;;4.28;;
27566;SDS011;15006;48.584;9.186;2024-02-14T09:26:43;4.97;;;3.50;;
27566;SDS011;15006;48.584;9.186;2024-02-14T09:29:09;3.92;;;2.92;;
27566;SDS011;15006;48.584;9.186;2024-02-14T09:31:37;2.45;;;2.03;;
27566;SDS011;15006;48.584;9.186;2024-02-14T09:34:03;1.73;;;1.63;;
27566;SDS011;15006;48.584;9.186;2024-02-14T09:36:29;5.38;;;1.48;;
27566;SDS011;15006;48.584;9.186;2024-02-14T09:38:56;1.60;;;1.50;;
27566;SDS011;15006;48.584;9.186;2024-02-14T09:41:25;1.73;;;1.58;;
27566;SDS011;15006;48.584;9.186;2024-02-14T09:44:03;5.25;;;2.10;;
27566;SDS011;15006;48.584;9.186;2024-02-14T09:46:29;2.10;;;1.42;;
27566;SDS011;15006;48.584;9.186;2024-02-14T09:48:55;1.85;;;1.63;;
27566;SDS011;15006;48.584;9.186;2024-02-14T09:51:25;4.55;;;1.25;;
27566;SDS011;15006;48.584;9.186;2024-02-14T09:53:51;4.30;;;1.30;;
27566;SDS011;15006;48.584;9.186;2024-02-14T09:56:20;1.30;;;1.20;;
27566;SDS011;15006;48.584;9.186;2024-02-14T09:58:49;2.17;;;1.15;;
27566;SDS011;15006;48.584;9.186;2024-02-14T10:01:21;2.35;;;1.33;;
27566;SDS011;15006;48.584;9.186;2024-02-14T10:03:52;7.15;;;1.40;;
27566;SDS011;15006;48.584;9.186;2024-02-14T10:06:21;3.22;;;1.58;;
27566;SDS011;15006;48.584;9.186;2024-02-14T10:08:49;3.17;;;1.30;;
27566;SDS011;15006;48.584;9.186;2024-02-14T10:11:17;2.33;;;1.45;;
27566;SDS011;15006;48.584;9.186;2024-02-14T10:13:47;1.42;;;1.27;;
27566;SDS011;15006;48.584;9.186;2024-02-14T10:16:15;1.52;;;1.15;;
27566;SDS011;15006;48.584;9.186;2024-02-14T10:18:41;1.63;;;1.40;;
27566;SDS011;15006;48.584;9.186;2024-02-14T10:21:08;2.65;;;1.17;;
27566;SDS011;15006;48.584;9.186;2024-02-14T10:23:40;3.28;;;1.42;;
27566;SDS011;15006;48.584;9.186;2024-02-14T10:26:06;2.35;;;1.27;;
27566;SDS011;15006;48.584;9.186;2024-02-14T10:28:32;2.00;;;1.40;;
27566;SDS011;15006;48.584;9.186;2024-02-14T10:30:58;4.53;;;1.35;;
27566;SDS011;15006;48.584;9.186;2024-02-14T10:33:27;1.42;;;1.30;;
27566;SDS011;15006;48.584;9.186;2024-02-14T10:35:54;2.25;;;1.27;;
27566;SDS011;15006;48.584;9.186;2024-02-14T10:38:22;1.77;;;1.30;;
27566;SDS011;15006;48.584;9.186;2024-02-14T10:40:48;2.13;;;1.38;;
27566;SDS011;15006;48.584;9.186;2024-02-14T10:43:14;2.42;;;1.10;;
27566;SDS011;15006;48.584;9.186;2024-02-14T10:45:40;1.40;;;1.30;;
27566;SDS011;15006;48.584;9.186;2024-02-14T10:48:08;2.28;;;1.38;;
27566;SDS011;15006;48.584;9.186;2024-02-14T10:50:40;1.30;;;1.20;;
27566;SDS011;15006;48.584;9.186;2024-02-14T10:53:08;1.98;;;1.05;;
27566;SDS011;15006;48.584;9.186;2024-02-14T10:55:40;1.48;;;1.13;;
27566;SDS011;15006;48.584;9.186;2024-02-14T10:58:12;1.52;;;1.27;;
27566;SDS011;15006;48.584;9.186;2024-02-14T11:00:39;1.42;;;0.90;;
27566;SDS011;15006;48.584;9.186;2024-02-14T11:03:06;3.70;;;1.10;;
27566;SDS011;15006;48.584;9.186;2024-02-14T11:05:42;1.85;;;1.25;;
27566;SDS011;15006;48.584;9.186;2024-02-14T11:08:19;1.40;;;1.02;;
27566;SDS011;15006;48.584;9.186;2024-02-14T11:10:55;2.00;;;1.08;;
27566;SDS011;15006;48.584;9.186;2024-02-14T11:13:30;1.00;;;0.90;;
27566;SDS011;15006;48.584;9.186;2024-02-14T11:15:57;1.80;;;0.90;;
27566;SDS011;15006;48.584;9.186;2024-02-14T11:18:27;0.70;;;0.70;;
27566;SDS011;15006;48.584;9.186;2024-02-14T11:20:57;0.73;;;0.55;;
27566;SDS011;15006;48.584;9.186;2024-02-14T11:23:23;0.50;;;0.50;;
27566;SDS011;15006;48.584;9.186;2024-02-14T11:25:49;0.73;;;0.60;;
27566;SDS011;15006;48.584;9.186;2024-02-14T11:28:19;0.60;;;0.60;;
27566;SDS011;15006;48.584;9.186;2024-02-14T11:30:51;1.02;;;0.60;;
27566;SDS011;15006;48.584;9.186;2024-02-14T11:33:18;0.50;;;0.50;;
27566;SDS011;15006;48.584;9.186;2024-02-14T11:35:52;1.17;;;0.80;;
27566;SDS011;15006;48.584;9.186;2024-02-14T11:38:20;0.82;;;0.60;;
27566;SDS011;15006;48.584;9.186;2024-02-14T11:40:53;0.60;;;0.50;;
27566;SDS011;15006;48.584;9.186;2024-02-14T11:43:22;0.40;;;0.40;;
27566;SDS011;15006;48.584;9.186;2024-02-14T11:45:48;0.50;;;0.50;;
27566;SDS011;15006;48.584;9.186;2024-02-14T11:48:15;0.50;;;0.50;;
27566;SDS011;15006;48.584;9.186;2024-02-14T11:50:43;1.27;;;0.63;;
27566;SDS011;15006;48.584;9.186;2024-02-14T11:53:13;0.73;;;0.63;;
27566;SDS011;15006;48.584;9.186;2024-02-14T11:55:44;2.50;;;0.45;;
27566;SDS011;15006;48.584;9.186;2024-02-14T11:58:12;1.08;;;0.60;;
27566;SDS011;15006;48.584;9.186;2024-02-14T12:00:41;0.45;;;0.40;;
27566;SDS011;15006;48.584;9.186;2024-02-14T12:03:12;2.53;;;1.10;;
27566;SDS011;15006;48.584;9.186;2024-02-14T12:05:45;0.82;;;0.60;;
27566;SDS011;15006;48.584;9.186;2024-02-14T12:08:22;0.47;;;0.40;;
27566;SDS011;15006;48.584;9.186;2024-02-14T12:10:48;0.43;;;0.40;;
27566;SDS011;15006;48.584;9.186;2024-02-14T12:13:15;0.32;;;0.32;;
27566;SDS011;15006;48.584;9.186;2024-02-14T12:18:13;0.55;;;0.40;;
27566;SDS011;15006;48.584;9.186;2024-02-14T12:20:39;0.30;;;0.30;;
27566;SDS011;15006;48.584;9.186;2024-02-14T12:23:06;1.55;;;0.90;;
27566;SDS011;15006;48.584;9.186;2024-02-14T12:25:33;0.90;;;0.88;;
27566;SDS011;15006;48.584;9.186;2024-02-14T12:27:59;1.50;;;0.75;;
27566;SDS011;15006;48.584;9.186;2024-02-14T12:30:33;0.47;;;0.40;;
27566;SDS011;15006;48.584;9.186;2024-02-14T12:33:11;0.40;;;0.40;;
27566;SDS011;15006;48.584;9.186;2024-02-14T12:35:41;0.40;;;0.40;;
27566;SDS011;15006;48.584;9.186;2024-02-14T12:38:09;0.60;;;0.60;;
27566;SDS011;15006;48.584;9.186;2024-02-14T12:40:36;0.50;;;0.50;;
27566;SDS011;15006;48.584;9.186;2024-02-14T12:43:02;0.30;;;0.25;;
27566;SDS011;15006;48.584;9.186;2024-02-14T12:45:28;0.47;;;0.40;;
27566;SDS011;15006;48.584;9.186;2024-02-14T12:47:54;0.35;;;0.30;;
27566;SDS011;15006;48.584;9.186;2024-02-14T12:50:20;0.30;;;0.30;;
27566;SDS011;15006;48.584;9.186;2024-02-14T12:52:46;0.38;;;0.38;;
27566;SDS011;15006;48.584;9.186;2024-02-14T12:55:13;0.30;;;0.30;;
27566;SDS011;15006;48.584;9.186;2024-02-14T12:57:40;1.08;;;0.35;;
27566;SDS011;15006;48.584;9.186;2024-02-14T13:00:06;0.52;;;0.28;;
27566;SDS011;15006;48.584;9.186;2024-02-14T13:02:36;0.40;;;0.40;;
27566;SDS011;15006;48.584;9.186;2024-02-14T13:05:03;1.38;;;0.50;;
27566;SDS011;15006;48.584;9.186;2024-02-14T13:07:30;0.40;;;0.32;;
27566;SDS011;15006;48.584;9.186;2024-02-14T13:09:57;0.50;;;0.35;;
27566;SDS011;15006;48.584;9.186;2024-02-14T13:12:23;0.55;;;0.40;;
27566;SDS011;15006;48.584;9.186;2024-02-14T13:14:49;1.02;;;0.32;;
27566;SDS011;15006;48.584;9.186;2024-02-14T13:17:16;0.40;;;0.40;;
27566;SDS011;15006;48.584;9.186;2024-02-14T13:19:42;0.20;;;0.20;;
27566;SDS011;15006;48.584;9.186;2024-02-14T13:22:08;2.20;;;0.50;;
27566;SDS011;15006;48.584;9.186;2024-02-14T13:24:34;0.35;;;0.30;;
27566;SDS011;15006;48.584;9.186;2024-02-14T13:27:00;0.57;;;0.32;;
27566;SDS011;15006;48.584;9.186;2024-02-14T13:29:26;3.03;;;0.57;;
27566;SDS011;15006;48.584;9.186;2024-02-14T13:31:53;0.68;;;0.30;;
27566;SDS011;15006;48.584;9.186;2024-02-14T13:34:19;0.50;;;0.40;;
27566;SDS011;15006;48.584;9.186;2024-02-14T13:36:45;0.50;;;0.43;;
27566;SDS011;15006;48.584;9.186;2024-02-14T13:39:13;1.67;;;0.30;;
27566;SDS011;15006;48.584;9.186;2024-02-14T13:41:42;2.13;;;0.30;;
27566;SDS011;15006;48.584;9.186;2024-02-14T13:44:09;0.30;;;0.30;;
27566;SDS011;15006;48.584;9.186;2024-02-14T13:46:38;0.55;;;0.30;;
27566;SDS011;15006;48.584;9.186;2024-02-14T13:49:10;3.17;;;0.50;;
27566;SDS011;15006;48.584;9.186;2024-02-14T13:51:39;0.40;;;0.40;;
27566;SDS011;15006;48.584;9.186;2024-02-14T13:54:05;0.40;;;0.40;;
27566;SDS011;15006;48.584;9.186;2024-02-14T13:56:32;0.32;;;0.30;;
27566;SDS011;15006;48.584;9.186;2024-02-14T13:58:58;0.32;;;0.30;;
27566;SDS011;15006;48.584;9.186;2024-02-14T14:01:24;5.05;;;0.40;;
27566;SDS011;15006;48.584;9.186;2024-02-14T14:03:51;1.20;;;0.52;;
27566;SDS011;15006;48.584;9.186;2024-02-14T14:06:20;2.75;;;0.50;;
27566;SDS011;15006;48.584;9.186;2024-02-14T14:08:49;0.40;;;0.40;;
27566;SDS011;15006;48.584;9.186;2024-02-14T14:11:16;0.60;;;0.40;;
27566;SDS011;15006;48.584;9.186;2024-02-14T14:13:42;0.68;;;0.60;;
27566;SDS011;15006;48.584;9.186;2024-02-14T14:16:08;0.77;;;0.40;;
27566;SDS011;15006;48.584;9.186;2024-02-14T14:18:36;1.10;;;0.55;;
27566;SDS011;15006;48.584;9.186;2024-02-14T14:21:04;0.30;;;0.30;;
27566;SDS011;15006;48.584;9.186;2024-02-14T14:23:30;1.95;;;0.43;;
27566;SDS011;15006;48.584;9.186;2024-02-14T14:25:58;3.90;;;0.60;;
27566;SDS011;15006;48.584;9.186;2024-02-14T14:28:25;3.22;;;0.50;;
27566;SDS011;15006;48.584;9.186;2024-02-14T14:30:52;0.73;;;0.35;;
27566;SDS011;15006;48.584;9.186;2024-02-14T14:33:20;0.95;;;0.30;;
27566;SDS011;15006;48.584;9.186;2024-02-14T14:35:46;0.35;;;0.30;;
27566;SDS011;15006;48.584;9.186;2024-02-14T14:38:16;2.13;;;0.40;;
27566;SDS011;15006;48.584;9.186;2024-02-14T14:40:41;0.40;;;0.40;;
27566;SDS011;15006;48.584;9.186;2024-02-14T14:43:07;0.43;;;0.40;;
27566;SDS011;15006;48.584;9.186;2024-02-14T14:45:33;2.38;;;0.30;;
27566;SDS011;15006;48.584;9.186;2024-02-14T14:47:59;0.50;;;0.50;;
27566;SDS011;15006;48.584;9.186;2024-02-14T14:50:25;0.50;;;0.40;;
27566;SDS011;15006;48.584;9.186;2024-02-14T14:52:51;0.77;;;0.30;;